sensor_id;sensor_type;location;lat;lon;timestamp;P1;durP1;ratioP1;P2;durP2;ratioP2
3439;SDS011;1733;42.286;22.690;2023-10-09T00:00:32;4.80;;;2.27;;
3439;SDS011;1733;42.286;22.690;2023-10-09T00:03:16;4.23;;;2.07;;
3439;SDS011;1733;42.286;22.690;2023-10-09T00:05:44;4.30;;;2.33;;
3439;SDS011;1733;42.286;22.690;2023-10-09T00:08:13;3.07;;;2.03;;
3439;SDS011;1733;42.286;22.690;2023-10-09T00:10:46;2.10;;;1.90;;
3439;SDS011;1733;42.286;22.690;2023-10-09T00:13:18;9.93;;;4.00;;
3439;SDS011;1733;42.286;22.690;2023-10-09T00:15:45;1.83;;;1.70;;
3439;SDS011;1733;42.286;22.690;2023-10-09T00:18:18;2.53;;;2.33;;
3439;SDS011;1733;42.286;22.690;2023-10-09T00:20:53;2.30;;;2.00;;
3439;SDS011;1733;42.286;22.690;2023-10-09T00:23:26;3.23;;;2.00;;
3439;SDS011;1733;42.286;22.690;2023-10-09T00:25:52;2.23;;;2.03;;
3439;SDS011;1733;42.286;22.690;2023-10-09T00:28:34;4.53;;;2.13;;
3439;SDS011;1733;42.286;22.690;2023-10-09T00:31:03;2.20;;;2.00;;
3439;SDS011;1733;42.286;22.690;2023-10-09T00:33:33;3.10;;;2.33;;
3439;SDS011;1733;42.286;22.690;2023-10-09T00:36:03;2.13;;;1.93;;
3439;SDS011;1733;42.286;22.690;2023-10-09T00:38:37;2.27;;;2.17;;
3439;SDS011;1733;42.286;22.690;2023-10-09T00:41:09;2.47;;;1.90;;
3439;SDS011;1733;42.286;22.690;2023-10-09T00:43:37;2.50;;;2.00;;
3439;SDS011;1733;42.286;22.690;2023-10-09T00:46:08;3.57;;;1.80;;
3439;SDS011;1733;42.286;22.690;2023-10-09T00:48:49;10.80;;;1.83;;
3439;SDS011;1733;42.286;22.690;2023-10-09T00:51:21;3.53;;;1.43;;
3439;SDS011;1733;42.286;22.690;2023-10-09T00:53:51;1.60;;;1.43;;
3439;SDS011;1733;42.286;22.690;2023-10-09T00:56:20;3.53;;;2.00;;
3439;SDS011;1733;42.286;22.690;2023-10-09T00:59:03;2.60;;;1.70;;
3439;SDS011;1733;42.286;22.690;2023-10-09T01:01:34;3.53;;;2.00;;
3439;SDS011;1733;42.286;22.690;2023-10-09T01:04:02;2.17;;;2.07;;
3439;SDS011;1733;42.286;22.690;2023-10-09T01:06:43;6.90;;;2.37;;
3439;SDS011;1733;42.286;22.690;2023-10-09T01:09:14;2.07;;;1.83;;
3439;SDS011;1733;42.286;22.690;2023-10-09T01:11:45;4.67;;;1.70;;
3439;SDS011;1733;42.286;22.690;2023-10-09T01:14:28;5.83;;;1.77;;
3439;SDS011;1733;42.286;22.690;2023-10-09T01:16:56;5.83;;;2.93;;
3439;SDS011;1733;42.286;22.690;2023-10-09T01:19:25;2.80;;;2.23;;
3439;SDS011;1733;42.286;22.690;2023-10-09T01:21:53;2.70;;;1.97;;
3439;SDS011;1733;42.286;22.690;2023-10-09T01:24:21;1.97;;;1.77;;
3439;SDS011;1733;42.286;22.690;2023-10-09T01:26:51;2.47;;;2.00;;
3439;SDS011;1733;42.286;22.690;2023-10-09T01:29:19;2.53;;;1.97;;
3439;SDS011;1733;42.286;22.690;2023-10-09T01:31:47;2.43;;;1.57;;
3439;SDS011;1733;42.286;22.690;2023-10-09T01:34:21;1.87;;;1.77;;
3439;SDS011;1733;42.286;22.690;2023-10-09T01:37:03;2.23;;;2.13;;
3439;SDS011;1733;42.286;22.690;2023-10-09T01:39:38;2.30;;;2.10;;
3439;SDS011;1733;42.286;22.690;2023-10-09T01:42:06;5.50;;;2.23;;
3439;SDS011;1733;42.286;22.690;2023-10-09T01:44:35;2.40;;;2.20;;
3439;SDS011;1733;42.286;22.690;2023-10-09T01:47:08;2.27;;;2.07;;
3439;SDS011;1733;42.286;22.690;2023-10-09T01:49:39;4.50;;;3.43;;
3439;SDS011;1733;42.286;22.690;2023-10-09T01:52:09;3.03;;;1.80;;
3439;SDS011;1733;42.286;22.690;2023-10-09T01:54:39;3.20;;;2.90;;
3439;SDS011;1733;42.286;22.690;2023-10-09T01:57:07;1.93;;;1.60;;
3439;SDS011;1733;42.286;22.690;2023-10-09T01:59:38;5.40;;;1.83;;
3439;SDS011;1733;42.286;22.690;2023-10-09T02:02:09;2.23;;;2.03;;
3439;SDS011;1733;42.286;22.690;2023-10-09T02:04:50;5.10;;;2.20;;
3439;SDS011;1733;42.286;22.690;2023-10-09T02:07:19;2.77;;;2.03;;
3439;SDS011;1733;42.286;22.690;2023-10-09T02:09:55;4.60;;;2.50;;
3439;SDS011;1733;42.286;22.690;2023-10-09T02:12:22;1.87;;;1.77;;
3439;SDS011;1733;42.286;22.690;2023-10-09T02:14:50;6.63;;;2.20;;
3439;SDS011;1733;42.286;22.690;2023-10-09T02:17:21;2.77;;;2.57;;
3439;SDS011;1733;42.286;22.690;2023-10-09T02:19:53;2.10;;;2.00;;
3439;SDS011;1733;42.286;22.690;2023-10-09T02:22:20;2.73;;;1.87;;
3439;SDS011;1733;42.286;22.690;2023-10-09T02:24:51;2.37;;;2.10;;
3439;SDS011;1733;42.286;22.690;2023-10-09T02:27:24;1.70;;;1.60;;
3439;SDS011;1733;42.286;22.690;2023-10-09T02:30:12;3.67;;;2.43;;
3439;SDS011;1733;42.286;22.690;2023-10-09T02:32:44;2.57;;;2.37;;
3439;SDS011;1733;42.286;22.690;2023-10-09T02:35:14;3.50;;;2.27;;
3439;SDS011;1733;42.286;22.690;2023-10-09T02:37:56;3.20;;;2.83;;
3439;SDS011;1733;42.286;22.690;2023-10-09T02:40:26;2.60;;;2.33;;
3439;SDS011;1733;42.286;22.690;2023-10-09T02:42:59;2.67;;;2.47;;
3439;SDS011;1733;42.286;22.690;2023-10-09T02:45:26;5.93;;;2.57;;
3439;SDS011;1733;42.286;22.690;2023-10-09T02:47:58;3.93;;;3.50;;
3439;SDS011;1733;42.286;22.690;2023-10-09T02:50:25;4.20;;;3.07;;
3439;SDS011;1733;42.286;22.690;2023-10-09T02:52:53;2.57;;;2.30;;
3439;SDS011;1733;42.286;22.690;2023-10-09T02:55:25;3.57;;;3.33;;
3439;SDS011;1733;42.286;22.690;2023-10-09T02:57:53;6.77;;;3.63;;
3439;SDS011;1733;42.286;22.690;2023-10-09T03:00:31;3.93;;;3.00;;
3439;SDS011;1733;42.286;22.690;2023-10-09T03:03:01;2.73;;;2.47;;
3439;SDS011;1733;42.286;22.690;2023-10-09T03:05:31;3.50;;;2.90;;
3439;SDS011;1733;42.286;22.690;2023-10-09T03:07:58;4.77;;;2.50;;
3439;SDS011;1733;42.286;22.690;2023-10-09T03:10:27;3.30;;;2.53;;
3439;SDS011;1733;42.286;22.690;2023-10-09T03:12:54;3.27;;;2.97;;
3439;SDS011;1733;42.286;22.690;2023-10-09T03:15:21;3.63;;;3.33;;
3439;SDS011;1733;42.286;22.690;2023-10-09T03:17:49;1.97;;;1.87;;
3439;SDS011;1733;42.286;22.690;2023-10-09T03:20:16;2.60;;;2.40;;
3439;SDS011;1733;42.286;22.690;2023-10-09T03:22:44;3.10;;;2.83;;
3439;SDS011;1733;42.286;22.690;2023-10-09T03:25:12;3.27;;;2.97;;
3439;SDS011;1733;42.286;22.690;2023-10-09T03:27:42;4.23;;;2.63;;
3439;SDS011;1733;42.286;22.690;2023-10-09T03:30:12;4.40;;;4.00;;
3439;SDS011;1733;42.286;22.690;2023-10-09T03:32:43;4.43;;;2.80;;
3439;SDS011;1733;42.286;22.690;2023-10-09T03:35:13;3.90;;;3.07;;
3439;SDS011;1733;42.286;22.690;2023-10-09T03:37:49;3.33;;;3.03;;
3439;SDS011;1733;42.286;22.690;2023-10-09T03:40:17;3.73;;;3.33;;
3439;SDS011;1733;42.286;22.690;2023-10-09T03:42:46;4.47;;;2.50;;
3439;SDS011;1733;42.286;22.690;2023-10-09T03:45:13;3.13;;;2.83;;
3439;SDS011;1733;42.286;22.690;2023-10-09T03:47:50;3.17;;;2.87;;
3439;SDS011;1733;42.286;22.690;2023-10-09T03:50:23;3.23;;;3.03;;
3439;SDS011;1733;42.286;22.690;2023-10-09T03:52:55;3.60;;;2.73;;
3439;SDS011;1733;42.286;22.690;2023-10-09T03:55:22;4.00;;;3.23;;
3439;SDS011;1733;42.286;22.690;2023-10-09T03:57:52;7.07;;;3.70;;
3439;SDS011;1733;42.286;22.690;2023-10-09T04:00:20;4.70;;;3.77;;
3439;SDS011;1733;42.286;22.690;2023-10-09T04:02:54;5.60;;;4.53;;
3439;SDS011;1733;42.286;22.690;2023-10-09T04:05:22;4.90;;;3.63;;
3439;SDS011;1733;42.286;22.690;2023-10-09T04:07:50;4.20;;;3.80;;
3439;SDS011;1733;42.286;22.690;2023-10-09T04:10:19;5.63;;;3.37;;
3439;SDS011;1733;42.286;22.690;2023-10-09T04:13:03;4.87;;;3.77;;
3439;SDS011;1733;42.286;22.690;2023-10-09T04:15:34;4.30;;;3.50;;
3439;SDS011;1733;42.286;22.690;2023-10-09T04:18:01;5.60;;;3.00;;
3439;SDS011;1733;42.286;22.690;2023-10-09T04:20:31;3.43;;;3.17;;
3439;SDS011;1733;42.286;22.690;2023-10-09T04:23:32;4.97;;;4.57;;
3439;SDS011;1733;42.286;22.690;2023-10-09T04:26:21;6.03;;;4.03;;
3439;SDS011;1733;42.286;22.690;2023-10-09T04:28:50;6.43;;;3.70;;
3439;SDS011;1733;42.286;22.690;2023-10-09T04:31:19;5.43;;;3.60;;
3439;SDS011;1733;42.286;22.690;2023-10-09T04:33:47;6.33;;;3.27;;
3439;SDS011;1733;42.286;22.690;2023-10-09T04:36:42;4.60;;;3.13;;
3439;SDS011;1733;42.286;22.690;2023-10-09T04:39:16;4.50;;;3.67;;
3439;SDS011;1733;42.286;22.690;2023-10-09T04:41:58;4.73;;;3.80;;
3439;SDS011;1733;42.286;22.690;2023-10-09T04:44:38;5.00;;;4.50;;
3439;SDS011;1733;42.286;22.690;2023-10-09T04:47:17;5.00;;;4.60;;
3439;SDS011;1733;42.286;22.690;2023-10-09T04:49:50;4.13;;;3.83;;
3439;SDS011;1733;42.286;22.690;2023-10-09T04:52:29;8.70;;;4.60;;
3439;SDS011;1733;42.286;22.690;2023-10-09T04:55:13;4.63;;;4.20;;
3439;SDS011;1733;42.286;22.690;2023-10-09T04:57:44;5.50;;;4.20;;
3439;SDS011;1733;42.286;22.690;2023-10-09T05:00:26;8.30;;;4.93;;
3439;SDS011;1733;42.286;22.690;2023-10-09T05:03:12;6.63;;;5.03;;
3439;SDS011;1733;42.286;22.690;2023-10-09T05:05:52;5.30;;;4.70;;
3439;SDS011;1733;42.286;22.690;2023-10-09T05:08:26;6.40;;;4.97;;
3439;SDS011;1733;42.286;22.690;2023-10-09T05:10:58;6.00;;;4.60;;
3439;SDS011;1733;42.286;22.690;2023-10-09T05:13:41;5.27;;;4.07;;
3439;SDS011;1733;42.286;22.690;2023-10-09T05:16:23;4.50;;;4.07;;
3439;SDS011;1733;42.286;22.690;2023-10-09T05:18:51;8.00;;;4.53;;
3439;SDS011;1733;42.286;22.690;2023-10-09T05:21:22;3.50;;;3.00;;
3439;SDS011;1733;42.286;22.690;2023-10-09T05:24:11;8.77;;;5.03;;
3439;SDS011;1733;42.286;22.690;2023-10-09T05:26:48;6.33;;;4.63;;
3439;SDS011;1733;42.286;22.690;2023-10-09T05:29:18;4.73;;;3.70;;
3439;SDS011;1733;42.286;22.690;2023-10-09T05:31:59;4.93;;;4.43;;
3439;SDS011;1733;42.286;22.690;2023-10-09T05:34:29;7.97;;;3.73;;
3439;SDS011;1733;42.286;22.690;2023-10-09T05:37:00;3.80;;;3.50;;
3439;SDS011;1733;42.286;22.690;2023-10-09T05:39:43;9.53;;;4.40;;
3439;SDS011;1733;42.286;22.690;2023-10-09T05:42:31;7.07;;;4.80;;
3439;SDS011;1733;42.286;22.690;2023-10-09T05:45:08;6.10;;;4.37;;
3439;SDS011;1733;42.286;22.690;2023-10-09T05:47:54;4.27;;;3.60;;
3439;SDS011;1733;42.286;22.690;2023-10-09T05:50:22;4.83;;;3.53;;
3439;SDS011;1733;42.286;22.690;2023-10-09T05:53:03;4.20;;;3.83;;
3439;SDS011;1733;42.286;22.690;2023-10-09T05:55:43;3.73;;;3.20;;
3439;SDS011;1733;42.286;22.690;2023-10-09T05:58:28;5.70;;;3.70;;
3439;SDS011;1733;42.286;22.690;2023-10-09T06:01:23;3.40;;;3.10;;
3439;SDS011;1733;42.286;22.690;2023-10-09T06:04:08;3.57;;;2.83;;
3439;SDS011;1733;42.286;22.690;2023-10-09T06:06:40;4.13;;;3.80;;
3439;SDS011;1733;42.286;22.690;2023-10-09T06:09:11;5.40;;;3.07;;
3439;SDS011;1733;42.286;22.690;2023-10-09T06:11:57;4.97;;;3.97;;
3439;SDS011;1733;42.286;22.690;2023-10-09T06:14:38;3.93;;;2.80;;
3439;SDS011;1733;42.286;22.690;2023-10-09T06:17:23;4.20;;;3.20;;
3439;SDS011;1733;42.286;22.690;2023-10-09T06:19:51;2.93;;;2.47;;
3439;SDS011;1733;42.286;22.690;2023-10-09T06:22:24;3.20;;;2.40;;
3439;SDS011;1733;42.286;22.690;2023-10-09T06:25:11;6.80;;;3.30;;
3439;SDS011;1733;42.286;22.690;2023-10-09T06:27:44;2.83;;;2.27;;
3439;SDS011;1733;42.286;22.690;2023-10-09T06:30:23;5.53;;;3.20;;
3439;SDS011;1733;42.286;22.690;2023-10-09T06:32:50;3.70;;;3.37;;
3439;SDS011;1733;42.286;22.690;2023-10-09T06:35:23;2.93;;;2.60;;
3439;SDS011;1733;42.286;22.690;2023-10-09T06:37:56;2.63;;;2.10;;
3439;SDS011;1733;42.286;22.690;2023-10-09T06:40:46;2.40;;;2.20;;
3439;SDS011;1733;42.286;22.690;2023-10-09T06:43:38;3.80;;;2.30;;
3439;SDS011;1733;42.286;22.690;2023-10-09T06:46:15;3.40;;;2.70;;
3439;SDS011;1733;42.286;22.690;2023-10-09T06:49:00;2.70;;;2.00;;
3439;SDS011;1733;42.286;22.690;2023-10-09T06:51:40;2.30;;;2.10;;
3439;SDS011;1733;42.286;22.690;2023-10-09T06:54:07;4.07;;;2.50;;
3439;SDS011;1733;42.286;22.690;2023-10-09T06:56:50;2.50;;;2.33;;
3439;SDS011;1733;42.286;22.690;2023-10-09T06:59:38;5.30;;;2.43;;
3439;SDS011;1733;42.286;22.690;2023-10-09T07:02:28;2.50;;;2.30;;
3439;SDS011;1733;42.286;22.690;2023-10-09T07:04:56;3.87;;;2.40;;
3439;SDS011;1733;42.286;22.690;2023-10-09T07:07:35;4.37;;;2.20;;
3439;SDS011;1733;42.286;22.690;2023-10-09T07:10:15;2.40;;;2.00;;
3439;SDS011;1733;42.286;22.690;2023-10-09T07:12:59;2.43;;;2.23;;
3439;SDS011;1733;42.286;22.690;2023-10-09T07:15:26;1.67;;;1.57;;
3439;SDS011;1733;42.286;22.690;2023-10-09T07:18:11;1.87;;;1.50;;
3439;SDS011;1733;42.286;22.690;2023-10-09T07:20:48;2.07;;;1.97;;
3439;SDS011;1733;42.286;22.690;2023-10-09T07:23:26;6.07;;;1.33;;
3439;SDS011;1733;42.286;22.690;2023-10-09T07:26:04;2.07;;;1.87;;
3439;SDS011;1733;42.286;22.690;2023-10-09T07:28:51;3.00;;;2.03;;
3439;SDS011;1733;42.286;22.690;2023-10-09T07:31:27;4.63;;;2.53;;
3439;SDS011;1733;42.286;22.690;2023-10-09T07:34:04;5.63;;;1.87;;
3439;SDS011;1733;42.286;22.690;2023-10-09T07:36:53;4.80;;;2.10;;
3439;SDS011;1733;42.286;22.690;2023-10-09T07:39:21;2.00;;;1.80;;
3439;SDS011;1733;42.286;22.690;2023-10-09T07:41:49;1.73;;;1.53;;
3439;SDS011;1733;42.286;22.690;2023-10-09T07:44:27;2.93;;;2.13;;
3439;SDS011;1733;42.286;22.690;2023-10-09T07:47:05;2.27;;;2.07;;
3439;SDS011;1733;42.286;22.690;2023-10-09T07:49:43;3.00;;;1.80;;
3439;SDS011;1733;42.286;22.690;2023-10-09T07:52:14;2.23;;;1.70;;
3439;SDS011;1733;42.286;22.690;2023-10-09T07:54:42;1.80;;;1.70;;
3439;SDS011;1733;42.286;22.690;2023-10-09T07:57:15;2.07;;;1.93;;
3439;SDS011;1733;42.286;22.690;2023-10-09T07:59:42;2.00;;;1.80;;
3439;SDS011;1733;42.286;22.690;2023-10-09T08:02:21;1.50;;;1.30;;
3439;SDS011;1733;42.286;22.690;2023-10-09T08:04:57;1.83;;;1.63;;
3439;SDS011;1733;42.286;22.690;2023-10-09T08:07:29;3.90;;;1.83;;
3439;SDS011;1733;42.286;22.690;2023-10-09T08:10:01;1.80;;;1.70;;
3439;SDS011;1733;42.286;22.690;2023-10-09T08:12:46;1.93;;;1.77;;
3439;SDS011;1733;42.286;22.690;2023-10-09T08:15:24;2.30;;;2.10;;
3439;SDS011;1733;42.286;22.690;2023-10-09T08:18:00;3.10;;;2.40;;
3439;SDS011;1733;42.286;22.690;2023-10-09T08:20:35;2.27;;;1.60;;
3439;SDS011;1733;42.286;22.690;2023-10-09T08:23:17;1.87;;;1.60;;
3439;SDS011;1733;42.286;22.690;2023-10-09T08:25:58;4.00;;;2.03;;
3439;SDS011;1733;42.286;22.690;2023-10-09T08:28:37;1.77;;;1.47;;
3439;SDS011;1733;42.286;22.690;2023-10-09T08:31:08;1.40;;;1.30;;
3439;SDS011;1733;42.286;22.690;2023-10-09T08:33:46;1.73;;;1.60;;
3439;SDS011;1733;42.286;22.690;2023-10-09T08:36:21;2.80;;;1.33;;
3439;SDS011;1733;42.286;22.690;2023-10-09T08:38:48;2.40;;;1.43;;
3439;SDS011;1733;42.286;22.690;2023-10-09T08:41:14;3.70;;;1.87;;
3439;SDS011;1733;42.286;22.690;2023-10-09T08:43:49;1.60;;;1.50;;
3439;SDS011;1733;42.286;22.690;2023-10-09T08:46:20;1.97;;;1.77;;
3439;SDS011;1733;42.286;22.690;2023-10-09T08:48:53;2.23;;;1.70;;
3439;SDS011;1733;42.286;22.690;2023-10-09T08:51:21;1.80;;;1.70;;
3439;SDS011;1733;42.286;22.690;2023-10-09T08:53:50;3.03;;;2.60;;
3439;SDS011;1733;42.286;22.690;2023-10-09T08:56:18;1.60;;;1.50;;
3439;SDS011;1733;42.286;22.690;2023-10-09T08:58:49;2.17;;;1.97;;
3439;SDS011;1733;42.286;22.690;2023-10-09T09:01:17;3.63;;;1.97;;
3439;SDS011;1733;42.286;22.690;2023-10-09T09:03:46;5.07;;;1.77;;
3439;SDS011;1733;42.286;22.690;2023-10-09T09:06:15;2.10;;;1.40;;
3439;SDS011;1733;42.286;22.690;2023-10-09T09:08:44;1.30;;;1.20;;
3439;SDS011;1733;42.286;22.690;2023-10-09T09:11:12;2.33;;;1.83;;
3439;SDS011;1733;42.286;22.690;2023-10-09T09:13:43;2.47;;;2.27;;
3439;SDS011;1733;42.286;22.690;2023-10-09T09:16:15;3.03;;;2.73;;
3439;SDS011;1733;42.286;22.690;2023-10-09T09:18:49;2.40;;;2.20;;
3439;SDS011;1733;42.286;22.690;2023-10-09T09:21:23;4.77;;;2.10;;
3439;SDS011;1733;42.286;22.690;2023-10-09T09:23:53;3.60;;;2.30;;
3439;SDS011;1733;42.286;22.690;2023-10-09T09:26:32;6.63;;;2.50;;
3439;SDS011;1733;42.286;22.690;2023-10-09T09:29:02;1.83;;;1.40;;
3439;SDS011;1733;42.286;22.690;2023-10-09T09:31:34;2.03;;;1.73;;
3439;SDS011;1733;42.286;22.690;2023-10-09T09:34:04;1.60;;;1.50;;
3439;SDS011;1733;42.286;22.690;2023-10-09T09:36:50;3.43;;;1.50;;
3439;SDS011;1733;42.286;22.690;2023-10-09T09:39:23;1.70;;;1.60;;
3439;SDS011;1733;42.286;22.690;2023-10-09T09:41:55;2.30;;;1.70;;
3439;SDS011;1733;42.286;22.690;2023-10-09T09:44:31;2.93;;;1.70;;
3439;SDS011;1733;42.286;22.690;2023-10-09T09:47:08;1.70;;;1.60;;
3439;SDS011;1733;42.286;22.690;2023-10-09T09:49:38;1.70;;;1.60;;
3439;SDS011;1733;42.286;22.690;2023-10-09T09:52:08;3.20;;;1.97;;
3439;SDS011;1733;42.286;22.690;2023-10-09T09:54:37;1.73;;;1.60;;
3439;SDS011;1733;42.286;22.690;2023-10-09T09:57:04;3.80;;;1.83;;
3439;SDS011;1733;42.286;22.690;2023-10-09T09:59:37;7.90;;;1.67;;
3439;SDS011;1733;42.286;22.690;2023-10-09T10:02:16;1.93;;;1.60;;
3439;SDS011;1733;42.286;22.690;2023-10-09T10:04:51;2.13;;;1.77;;
3439;SDS011;1733;42.286;22.690;2023-10-09T10:07:23;1.77;;;1.53;;
3439;SDS011;1733;42.286;22.690;2023-10-09T10:09:54;2.40;;;2.07;;
3439;SDS011;1733;42.286;22.690;2023-10-09T10:18:53;1.90;;;1.80;;
3439;SDS011;1733;42.286;22.690;2023-10-09T10:21:32;3.00;;;1.50;;
3439;SDS011;1733;42.286;22.690;2023-10-09T10:24:05;2.70;;;1.50;;
3439;SDS011;1733;42.286;22.690;2023-10-09T10:27:23;1.60;;;1.50;;
3439;SDS011;1733;42.286;22.690;2023-10-09T10:32:59;3.90;;;1.63;;
3439;SDS011;1733;42.286;22.690;2023-10-09T10:35:34;1.90;;;1.50;;
3439;SDS011;1733;42.286;22.690;2023-10-09T10:38:26;2.03;;;1.83;;
3439;SDS011;1733;42.286;22.690;2023-10-09T10:41:09;2.17;;;1.97;;
3439;SDS011;1733;42.286;22.690;2023-10-09T10:43:37;1.90;;;1.70;;
3439;SDS011;1733;42.286;22.690;2023-10-09T10:46:25;2.03;;;1.83;;
3439;SDS011;1733;42.286;22.690;2023-10-09T10:49:00;4.15;;;1.85;;
3439;SDS011;1733;42.286;22.690;2023-10-09T10:51:40;2.33;;;1.75;;
3439;SDS011;1733;42.286;22.690;2023-10-09T10:54:19;3.92;;;2.00;;
3439;SDS011;1733;42.286;22.690;2023-10-09T10:57:19;2.42;;;1.67;;
3439;SDS011;1733;42.286;22.690;2023-10-09T10:59:54;1.58;;;1.30;;
3439;SDS011;1733;42.286;22.690;2023-10-09T11:02:38;1.55;;;1.45;;
3439;SDS011;1733;42.286;22.690;2023-10-09T11:05:13;2.78;;;2.28;;
3439;SDS011;1733;42.286;22.690;2023-10-09T11:07:49;1.63;;;1.48;;
3439;SDS011;1733;42.286;22.690;2023-10-09T11:10:21;2.10;;;1.90;;
3439;SDS011;1733;42.286;22.690;2023-10-09T11:12:55;3.38;;;1.65;;
3439;SDS011;1733;42.286;22.690;2023-10-09T11:15:36;3.15;;;2.20;;
3439;SDS011;1733;42.286;22.690;2023-10-09T11:18:11;3.55;;;1.95;;
3439;SDS011;1733;42.286;22.690;2023-10-09T11:20:44;2.97;;;2.20;;
3439;SDS011;1733;42.286;22.690;2023-10-09T11:23:22;5.85;;;2.35;;
3439;SDS011;1733;42.286;22.690;2023-10-09T11:26:01;2.00;;;1.80;;
3439;SDS011;1733;42.286;22.690;2023-10-09T11:28:47;2.45;;;2.25;;
3439;SDS011;1733;42.286;22.690;2023-10-09T11:31:38;2.55;;;1.92;;
3439;SDS011;1733;42.286;22.690;2023-10-09T11:34:08;2.10;;;1.50;;
3439;SDS011;1733;42.286;22.690;2023-10-09T11:36:54;1.95;;;1.85;;
3439;SDS011;1733;42.286;22.690;2023-10-09T11:39:23;2.15;;;1.55;;
3439;SDS011;1733;42.286;22.690;2023-10-09T11:41:59;2.10;;;1.60;;
3439;SDS011;1733;42.286;22.690;2023-10-09T11:44:38;2.20;;;1.92;;
3439;SDS011;1733;42.286;22.690;2023-10-09T11:47:09;3.75;;;2.03;;
3439;SDS011;1733;42.286;22.690;2023-10-09T11:49:58;5.70;;;2.92;;
3439;SDS011;1733;42.286;22.690;2023-10-09T11:52:53;2.60;;;2.20;;
3439;SDS011;1733;42.286;22.690;2023-10-09T11:55:33;2.60;;;2.40;;
3439;SDS011;1733;42.286;22.690;2023-10-09T11:58:00;2.55;;;1.67;;
3439;SDS011;1733;42.286;22.690;2023-10-09T12:00:28;11.15;;;1.98;;
3439;SDS011;1733;42.286;22.690;2023-10-09T12:02:56;2.20;;;1.80;;
3439;SDS011;1733;42.286;22.690;2023-10-09T17:17:17;3.93;;;3.30;;
3439;SDS011;1733;42.286;22.690;2023-10-09T17:19:45;6.90;;;3.43;;
3439;SDS011;1733;42.286;22.690;2023-10-09T17:22:13;7.37;;;3.57;;
3439;SDS011;1733;42.286;22.690;2023-10-09T17:24:40;4.17;;;2.87;;
3439;SDS011;1733;42.286;22.690;2023-10-09T17:27:07;4.97;;;2.90;;
3439;SDS011;1733;42.286;22.690;2023-10-09T17:29:34;8.77;;;2.80;;
3439;SDS011;1733;42.286;22.690;2023-10-09T17:32:03;7.30;;;3.37;;
3439;SDS011;1733;42.286;22.690;2023-10-09T17:34:32;5.70;;;3.67;;
3439;SDS011;1733;42.286;22.690;2023-10-09T17:36:59;8.13;;;3.60;;
3439;SDS011;1733;42.286;22.690;2023-10-09T17:39:26;5.10;;;3.33;;
3439;SDS011;1733;42.286;22.690;2023-10-09T17:41:53;3.50;;;3.20;;
3439;SDS011;1733;42.286;22.690;2023-10-09T17:44:20;11.20;;;3.30;;
3439;SDS011;1733;42.286;22.690;2023-10-09T17:46:47;4.27;;;3.07;;
3439;SDS011;1733;42.286;22.690;2023-10-09T17:49:14;5.13;;;3.00;;
3439;SDS011;1733;42.286;22.690;2023-10-09T17:51:42;3.73;;;3.07;;
3439;SDS011;1733;42.286;22.690;2023-10-09T17:54:09;10.07;;;4.37;;
3439;SDS011;1733;42.286;22.690;2023-10-09T17:56:38;4.50;;;2.93;;
3439;SDS011;1733;42.286;22.690;2023-10-09T17:59:05;13.40;;;3.63;;
3439;SDS011;1733;42.286;22.690;2023-10-09T18:01:36;4.80;;;3.97;;
3439;SDS011;1733;42.286;22.690;2023-10-09T18:04:03;5.10;;;3.47;;
3439;SDS011;1733;42.286;22.690;2023-10-09T18:06:30;8.17;;;3.57;;
3439;SDS011;1733;42.286;22.690;2023-10-09T18:09:01;7.80;;;3.13;;
3439;SDS011;1733;42.286;22.690;2023-10-09T18:11:40;9.90;;;2.97;;
3439;SDS011;1733;42.286;22.690;2023-10-09T18:14:07;6.30;;;3.63;;
3439;SDS011;1733;42.286;22.690;2023-10-09T18:16:34;7.40;;;3.70;;
3439;SDS011;1733;42.286;22.690;2023-10-09T18:19:02;4.67;;;2.70;;
3439;SDS011;1733;42.286;22.690;2023-10-09T18:21:32;8.97;;;3.03;;
3439;SDS011;1733;42.286;22.690;2023-10-09T18:24:04;3.60;;;3.23;;
3439;SDS011;1733;42.286;22.690;2023-10-09T18:26:35;4.60;;;3.20;;
3439;SDS011;1733;42.286;22.690;2023-10-09T18:29:02;6.10;;;3.67;;
3439;SDS011;1733;42.286;22.690;2023-10-09T18:31:29;6.17;;;3.03;;
3439;SDS011;1733;42.286;22.690;2023-10-09T18:33:56;3.30;;;3.00;;
3439;SDS011;1733;42.286;22.690;2023-10-09T18:36:23;5.93;;;2.73;;
3439;SDS011;1733;42.286;22.690;2023-10-09T18:38:53;11.07;;;4.10;;
3439;SDS011;1733;42.286;22.690;2023-10-09T18:41:22;3.30;;;3.00;;
3439;SDS011;1733;42.286;22.690;2023-10-09T18:43:49;7.37;;;4.83;;
3439;SDS011;1733;42.286;22.690;2023-10-09T18:46:18;2.50;;;1.83;;
3439;SDS011;1733;42.286;22.690;2023-10-09T18:48:45;2.47;;;2.13;;
3439;SDS011;1733;42.286;22.690;2023-10-09T18:51:12;3.13;;;2.50;;
3439;SDS011;1733;42.286;22.690;2023-10-09T18:53:42;3.00;;;2.60;;
3439;SDS011;1733;42.286;22.690;2023-10-09T18:56:11;3.83;;;2.97;;
3439;SDS011;1733;42.286;22.690;2023-10-09T18:58:40;5.27;;;2.37;;
3439;SDS011;1733;42.286;22.690;2023-10-09T19:01:08;14.70;;;3.20;;
3439;SDS011;1733;42.286;22.690;2023-10-09T19:03:38;3.43;;;2.00;;
3439;SDS011;1733;42.286;22.690;2023-10-09T19:06:05;2.40;;;1.63;;
3439;SDS011;1733;42.286;22.690;2023-10-09T19:08:33;3.63;;;3.30;;
3439;SDS011;1733;42.286;22.690;2023-10-09T19:11:00;2.10;;;1.90;;
3439;SDS011;1733;42.286;22.690;2023-10-09T19:13:34;2.97;;;2.07;;
3439;SDS011;1733;42.286;22.690;2023-10-09T19:16:02;6.80;;;2.53;;
3439;SDS011;1733;42.286;22.690;2023-10-09T19:18:30;2.77;;;1.80;;
3439;SDS011;1733;42.286;22.690;2023-10-09T19:21:02;5.80;;;2.73;;
3439;SDS011;1733;42.286;22.690;2023-10-09T19:23:30;4.13;;;2.37;;
3439;SDS011;1733;42.286;22.690;2023-10-09T19:25:58;3.40;;;2.57;;
3439;SDS011;1733;42.286;22.690;2023-10-09T19:28:25;4.37;;;2.40;;
3439;SDS011;1733;42.286;22.690;2023-10-09T19:31:01;4.10;;;2.63;;
3439;SDS011;1733;42.286;22.690;2023-10-09T19:33:31;6.80;;;2.33;;
3439;SDS011;1733;42.286;22.690;2023-10-09T19:36:01;6.20;;;2.47;;
3439;SDS011;1733;42.286;22.690;2023-10-09T19:38:29;6.77;;;4.73;;
3439;SDS011;1733;42.286;22.690;2023-10-09T19:40:56;9.23;;;4.30;;
3439;SDS011;1733;42.286;22.690;2023-10-09T19:43:23;5.30;;;3.33;;
3439;SDS011;1733;42.286;22.690;2023-10-09T19:45:51;6.47;;;4.00;;
3439;SDS011;1733;42.286;22.690;2023-10-09T19:48:19;3.93;;;3.60;;
3439;SDS011;1733;42.286;22.690;2023-10-09T19:50:45;4.37;;;3.77;;
3439;SDS011;1733;42.286;22.690;2023-10-09T19:53:12;4.97;;;4.43;;
3439;SDS011;1733;42.286;22.690;2023-10-09T19:55:40;8.63;;;3.97;;
3439;SDS011;1733;42.286;22.690;2023-10-09T19:58:08;5.17;;;2.60;;
3439;SDS011;1733;42.286;22.690;2023-10-09T20:00:38;6.80;;;2.93;;
3439;SDS011;1733;42.286;22.690;2023-10-09T20:03:05;7.67;;;3.20;;
3439;SDS011;1733;42.286;22.690;2023-10-09T20:05:33;6.00;;;3.07;;
3439;SDS011;1733;42.286;22.690;2023-10-09T20:07:59;4.20;;;3.90;;
3439;SDS011;1733;42.286;22.690;2023-10-09T20:10:29;5.47;;;2.77;;
3439;SDS011;1733;42.286;22.690;2023-10-09T20:12:55;4.90;;;4.40;;
3439;SDS011;1733;42.286;22.690;2023-10-09T20:15:22;5.73;;;4.47;;
3439;SDS011;1733;42.286;22.690;2023-10-09T20:17:50;4.67;;;4.27;;
3439;SDS011;1733;42.286;22.690;2023-10-09T20:20:17;9.20;;;8.30;;
3439;SDS011;1733;42.286;22.690;2023-10-09T20:22:49;13.80;;;7.70;;
3439;SDS011;1733;42.286;22.690;2023-10-09T20:25:17;13.37;;;5.23;;
3439;SDS011;1733;42.286;22.690;2023-10-09T20:27:46;10.70;;;7.60;;
3439;SDS011;1733;42.286;22.690;2023-10-09T20:30:14;9.63;;;5.17;;
3439;SDS011;1733;42.286;22.690;2023-10-09T20:32:41;6.80;;;4.43;;
3439;SDS011;1733;42.286;22.690;2023-10-09T20:35:08;4.40;;;3.50;;
3439;SDS011;1733;42.286;22.690;2023-10-09T20:37:38;10.33;;;3.33;;
3439;SDS011;1733;42.286;22.690;2023-10-09T20:40:07;4.17;;;3.80;;
3439;SDS011;1733;42.286;22.690;2023-10-09T20:42:43;4.57;;;2.93;;
3439;SDS011;1733;42.286;22.690;2023-10-09T20:45:10;3.37;;;3.10;;
3439;SDS011;1733;42.286;22.690;2023-10-09T20:47:37;7.33;;;3.30;;
3439;SDS011;1733;42.286;22.690;2023-10-09T20:50:04;5.83;;;3.30;;
3439;SDS011;1733;42.286;22.690;2023-10-09T20:52:32;4.70;;;3.03;;
3439;SDS011;1733;42.286;22.690;2023-10-09T20:54:59;7.00;;;2.70;;
3439;SDS011;1733;42.286;22.690;2023-10-09T20:57:28;13.07;;;3.40;;